sensor_id;sensor_type;location;lat;lon;timestamp;P1;durP1;ratioP1;P2;durP2;ratioP2
4466;SDS011;2246;42.664;23.278;2022-10-24T00:00:06;15.38;;;10.07;;
4466;SDS011;2246;42.664;23.278;2022-10-24T00:02:33;16.58;;;9.40;;
4466;SDS011;2246;42.664;23.278;2022-10-24T00:04:59;21.50;;;10.00;;
4466;SDS011;2246;42.664;23.278;2022-10-24T00:07:25;17.52;;;9.38;;
4466;SDS011;2246;42.664;23.278;2022-10-24T00:09:52;17.17;;;10.07;;
4466;SDS011;2246;42.664;23.278;2022-10-24T00:12:18;27.92;;;13.05;;
4466;SDS011;2246;42.664;23.278;2022-10-24T00:14:45;25.05;;;10.57;;
4466;SDS011;2246;42.664;23.278;2022-10-24T00:17:11;20.00;;;12.05;;
4466;SDS011;2246;42.664;23.278;2022-10-24T00:19:37;22.50;;;10.60;;
4466;SDS011;2246;42.664;23.278;2022-10-24T00:22:03;20.73;;;11.07;;
4466;SDS011;2246;42.664;23.278;2022-10-24T00:24:29;20.45;;;9.90;;
4466;SDS011;2246;42.664;23.278;2022-10-24T00:26:55;16.73;;;9.20;;
4466;SDS011;2246;42.664;23.278;2022-10-24T00:29:21;26.20;;;14.63;;
4466;SDS011;2246;42.664;23.278;2022-10-24T00:31:48;20.55;;;11.65;;
4466;SDS011;2246;42.664;23.278;2022-10-24T00:34:14;19.83;;;10.73;;
4466;SDS011;2246;42.664;23.278;2022-10-24T00:36:40;19.42;;;9.18;;
4466;SDS011;2246;42.664;23.278;2022-10-24T00:39:06;13.55;;;7.95;;
4466;SDS011;2246;42.664;23.278;2022-10-24T00:41:33;13.90;;;8.63;;
4466;SDS011;2246;42.664;23.278;2022-10-24T00:44:11;15.25;;;8.02;;
4466;SDS011;2246;42.664;23.278;2022-10-24T00:46:38;17.98;;;7.40;;
4466;SDS011;2246;42.664;23.278;2022-10-24T00:49:04;12.05;;;7.93;;
4466;SDS011;2246;42.664;23.278;2022-10-24T00:51:31;12.65;;;7.25;;
4466;SDS011;2246;42.664;23.278;2022-10-24T00:53:59;12.38;;;7.00;;
4466;SDS011;2246;42.664;23.278;2022-10-24T00:56:28;13.77;;;7.50;;
4466;SDS011;2246;42.664;23.278;2022-10-24T00:58:56;11.30;;;7.28;;
4466;SDS011;2246;42.664;23.278;2022-10-24T01:01:23;13.80;;;7.50;;
4466;SDS011;2246;42.664;23.278;2022-10-24T01:03:49;13.00;;;6.93;;
4466;SDS011;2246;42.664;23.278;2022-10-24T01:09:14;12.95;;;7.65;;
4466;SDS011;2246;42.664;23.278;2022-10-24T01:14:20;14.00;;;7.15;;
4466;SDS011;2246;42.664;23.278;2022-10-24T01:16:53;12.85;;;6.63;;
4466;SDS011;2246;42.664;23.278;2022-10-24T01:21:55;12.20;;;6.95;;
4466;SDS011;2246;42.664;23.278;2022-10-24T01:24:37;16.38;;;6.78;;
4466;SDS011;2246;42.664;23.278;2022-10-24T01:29:46;12.23;;;6.10;;
4466;SDS011;2246;42.664;23.278;2022-10-24T01:37:09;10.63;;;6.90;;
4466;SDS011;2246;42.664;23.278;2022-10-24T01:39:39;16.70;;;8.43;;
4466;SDS011;2246;42.664;23.278;2022-10-24T01:42:07;14.20;;;7.40;;
4466;SDS011;2246;42.664;23.278;2022-10-24T01:44:38;14.43;;;7.28;;
4466;SDS011;2246;42.664;23.278;2022-10-24T01:47:07;15.85;;;7.20;;
4466;SDS011;2246;42.664;23.278;2022-10-24T01:49:35;11.50;;;6.80;;
4466;SDS011;2246;42.664;23.278;2022-10-24T01:52:03;12.93;;;6.90;;
4466;SDS011;2246;42.664;23.278;2022-10-24T01:54:31;13.40;;;7.57;;
4466;SDS011;2246;42.664;23.278;2022-10-24T01:56:57;14.98;;;7.03;;
4466;SDS011;2246;42.664;23.278;2022-10-24T02:01:57;12.98;;;7.28;;
4466;SDS011;2246;42.664;23.278;2022-10-24T02:04:26;15.35;;;7.97;;
4466;SDS011;2246;42.664;23.278;2022-10-24T02:06:53;13.10;;;8.00;;
4466;SDS011;2246;42.664;23.278;2022-10-24T02:09:20;17.20;;;8.50;;
4466;SDS011;2246;42.664;23.278;2022-10-24T02:11:48;14.07;;;8.15;;
4466;SDS011;2246;42.664;23.278;2022-10-24T02:14:30;16.20;;;9.70;;
4466;SDS011;2246;42.664;23.278;2022-10-24T02:16:58;18.10;;;9.27;;
4466;SDS011;2246;42.664;23.278;2022-10-24T02:19:24;20.50;;;9.20;;
4466;SDS011;2246;42.664;23.278;2022-10-24T02:21:54;16.42;;;8.88;;
4466;SDS011;2246;42.664;23.278;2022-10-24T02:24:27;18.92;;;8.23;;
4466;SDS011;2246;42.664;23.278;2022-10-24T02:29:26;20.02;;;9.65;;
4466;SDS011;2246;42.664;23.278;2022-10-24T02:31:55;20.55;;;9.82;;
4466;SDS011;2246;42.664;23.278;2022-10-24T02:34:22;19.30;;;10.48;;
4466;SDS011;2246;42.664;23.278;2022-10-24T02:36:50;18.50;;;10.88;;
4466;SDS011;2246;42.664;23.278;2022-10-24T02:39:17;22.77;;;11.57;;
4466;SDS011;2246;42.664;23.278;2022-10-24T02:41:44;26.40;;;10.20;;
4466;SDS011;2246;42.664;23.278;2022-10-24T02:44:11;19.23;;;10.35;;
4466;SDS011;2246;42.664;23.278;2022-10-24T02:46:38;18.45;;;10.55;;
4466;SDS011;2246;42.664;23.278;2022-10-24T02:49:05;17.83;;;10.57;;
4466;SDS011;2246;42.664;23.278;2022-10-24T02:51:33;22.00;;;11.27;;
4466;SDS011;2246;42.664;23.278;2022-10-24T02:54:00;19.17;;;10.32;;
4466;SDS011;2246;42.664;23.278;2022-10-24T02:56:27;18.73;;;10.88;;
4466;SDS011;2246;42.664;23.278;2022-10-24T02:58:53;30.80;;;15.98;;
4466;SDS011;2246;42.664;23.278;2022-10-24T03:01:19;25.02;;;12.40;;
4466;SDS011;2246;42.664;23.278;2022-10-24T03:03:45;20.77;;;11.73;;
4466;SDS011;2246;42.664;23.278;2022-10-24T03:06:12;22.17;;;12.52;;
4466;SDS011;2246;42.664;23.278;2022-10-24T03:08:38;17.77;;;11.20;;
4466;SDS011;2246;42.664;23.278;2022-10-24T03:11:04;18.23;;;10.70;;
4466;SDS011;2246;42.664;23.278;2022-10-24T03:13:30;20.98;;;10.68;;
4466;SDS011;2246;42.664;23.278;2022-10-24T03:15:56;20.00;;;11.52;;
4466;SDS011;2246;42.664;23.278;2022-10-24T03:18:22;19.63;;;11.10;;
4466;SDS011;2246;42.664;23.278;2022-10-24T03:20:48;25.58;;;11.25;;
4466;SDS011;2246;42.664;23.278;2022-10-24T03:23:14;24.90;;;11.15;;
4466;SDS011;2246;42.664;23.278;2022-10-24T03:25:43;23.75;;;10.57;;
4466;SDS011;2246;42.664;23.278;2022-10-24T03:28:09;24.30;;;10.68;;
4466;SDS011;2246;42.664;23.278;2022-10-24T03:30:35;23.33;;;10.82;;
4466;SDS011;2246;42.664;23.278;2022-10-24T03:33:01;19.50;;;9.48;;
4466;SDS011;2246;42.664;23.278;2022-10-24T03:35:27;19.23;;;9.25;;
4466;SDS011;2246;42.664;23.278;2022-10-24T03:37:53;15.73;;;9.35;;
4466;SDS011;2246;42.664;23.278;2022-10-24T03:40:19;14.52;;;9.20;;
4466;SDS011;2246;42.664;23.278;2022-10-24T03:42:45;19.63;;;9.80;;
4466;SDS011;2246;42.664;23.278;2022-10-24T03:45:11;20.02;;;10.88;;
4466;SDS011;2246;42.664;23.278;2022-10-24T03:47:37;24.45;;;10.18;;
4466;SDS011;2246;42.664;23.278;2022-10-24T03:50:04;18.23;;;9.82;;
4466;SDS011;2246;42.664;23.278;2022-10-24T03:52:30;31.77;;;10.95;;
4466;SDS011;2246;42.664;23.278;2022-10-24T03:54:56;23.48;;;10.15;;
4466;SDS011;2246;42.664;23.278;2022-10-24T03:57:22;17.80;;;9.68;;
4466;SDS011;2246;42.664;23.278;2022-10-24T03:59:49;22.15;;;9.77;;
4466;SDS011;2246;42.664;23.278;2022-10-24T04:02:15;23.55;;;9.38;;
4466;SDS011;2246;42.664;23.278;2022-10-24T04:04:41;20.25;;;10.43;;
4466;SDS011;2246;42.664;23.278;2022-10-24T04:07:07;23.38;;;10.02;;
4466;SDS011;2246;42.664;23.278;2022-10-24T04:09:33;18.55;;;9.73;;
4466;SDS011;2246;42.664;23.278;2022-10-24T04:11:59;20.27;;;10.35;;
4466;SDS011;2246;42.664;23.278;2022-10-24T04:14:25;19.25;;;10.63;;
4466;SDS011;2246;42.664;23.278;2022-10-24T04:16:52;22.95;;;10.70;;
4466;SDS011;2246;42.664;23.278;2022-10-24T04:19:18;27.05;;;11.90;;
4466;SDS011;2246;42.664;23.278;2022-10-24T04:21:44;27.90;;;12.40;;
4466;SDS011;2246;42.664;23.278;2022-10-24T04:24:12;30.70;;;11.50;;
4466;SDS011;2246;42.664;23.278;2022-10-24T04:26:38;26.10;;;12.43;;
4466;SDS011;2246;42.664;23.278;2022-10-24T04:29:04;30.83;;;13.15;;
4466;SDS011;2246;42.664;23.278;2022-10-24T04:31:30;24.52;;;12.93;;
4466;SDS011;2246;42.664;23.278;2022-10-24T04:33:56;30.20;;;13.25;;
4466;SDS011;2246;42.664;23.278;2022-10-24T04:36:23;28.30;;;13.23;;
4466;SDS011;2246;42.664;23.278;2022-10-24T04:38:49;25.13;;;12.63;;
4466;SDS011;2246;42.664;23.278;2022-10-24T04:41:15;31.40;;;13.63;;
4466;SDS011;2246;42.664;23.278;2022-10-24T04:43:41;33.90;;;13.05;;
4466;SDS011;2246;42.664;23.278;2022-10-24T04:46:07;29.75;;;13.70;;
4466;SDS011;2246;42.664;23.278;2022-10-24T04:48:33;32.45;;;15.05;;
4466;SDS011;2246;42.664;23.278;2022-10-24T04:50:59;29.63;;;13.93;;
4466;SDS011;2246;42.664;23.278;2022-10-24T04:53:26;37.17;;;15.20;;
4466;SDS011;2246;42.664;23.278;2022-10-24T04:55:52;34.35;;;16.13;;
4466;SDS011;2246;42.664;23.278;2022-10-24T04:58:18;33.75;;;16.10;;
4466;SDS011;2246;42.664;23.278;2022-10-24T05:00:44;28.52;;;14.85;;
4466;SDS011;2246;42.664;23.278;2022-10-24T05:03:13;32.88;;;14.95;;
4466;SDS011;2246;42.664;23.278;2022-10-24T05:05:39;32.90;;;13.75;;
4466;SDS011;2246;42.664;23.278;2022-10-24T05:08:05;25.38;;;13.48;;
4466;SDS011;2246;42.664;23.278;2022-10-24T05:10:32;23.95;;;12.02;;
4466;SDS011;2246;42.664;23.278;2022-10-24T05:12:58;28.90;;;11.77;;
4466;SDS011;2246;42.664;23.278;2022-10-24T05:15:24;26.92;;;12.00;;
4466;SDS011;2246;42.664;23.278;2022-10-24T05:17:50;34.08;;;14.38;;
4466;SDS011;2246;42.664;23.278;2022-10-24T05:20:16;30.80;;;14.00;;
4466;SDS011;2246;42.664;23.278;2022-10-24T05:22:42;23.95;;;12.10;;
4466;SDS011;2246;42.664;23.278;2022-10-24T05:25:08;29.88;;;13.57;;
4466;SDS011;2246;42.664;23.278;2022-10-24T05:27:34;26.10;;;13.13;;
4466;SDS011;2246;42.664;23.278;2022-10-24T05:30:00;22.08;;;11.95;;
4466;SDS011;2246;42.664;23.278;2022-10-24T05:32:27;22.60;;;11.45;;
4466;SDS011;2246;42.664;23.278;2022-10-24T05:34:53;24.90;;;10.93;;
4466;SDS011;2246;42.664;23.278;2022-10-24T05:37:19;21.67;;;11.65;;
4466;SDS011;2246;42.664;23.278;2022-10-24T05:39:45;24.45;;;11.07;;
4466;SDS011;2246;42.664;23.278;2022-10-24T05:42:11;19.42;;;10.90;;
4466;SDS011;2246;42.664;23.278;2022-10-24T05:44:37;27.90;;;11.73;;
4466;SDS011;2246;42.664;23.278;2022-10-24T05:47:03;26.13;;;13.10;;
4466;SDS011;2246;42.664;23.278;2022-10-24T05:49:29;35.15;;;13.32;;
4466;SDS011;2246;42.664;23.278;2022-10-24T05:51:55;28.67;;;12.50;;
4466;SDS011;2246;42.664;23.278;2022-10-24T05:54:22;34.78;;;13.75;;
4466;SDS011;2246;42.664;23.278;2022-10-24T05:56:48;28.40;;;13.35;;
4466;SDS011;2246;42.664;23.278;2022-10-24T05:59:14;35.22;;;13.77;;
4466;SDS011;2246;42.664;23.278;2022-10-24T06:01:40;41.63;;;14.20;;
4466;SDS011;2246;42.664;23.278;2022-10-24T06:04:06;41.33;;;14.07;;
4466;SDS011;2246;42.664;23.278;2022-10-24T06:06:32;50.67;;;15.10;;
4466;SDS011;2246;42.664;23.278;2022-10-24T06:08:58;35.58;;;13.98;;
4466;SDS011;2246;42.664;23.278;2022-10-24T06:11:25;31.95;;;13.43;;
4466;SDS011;2246;42.664;23.278;2022-10-24T06:13:51;33.13;;;14.52;;
4466;SDS011;2246;42.664;23.278;2022-10-24T06:16:17;35.92;;;13.65;;
4466;SDS011;2246;42.664;23.278;2022-10-24T06:18:43;30.77;;;12.02;;
4466;SDS011;2246;42.664;23.278;2022-10-24T06:21:10;28.50;;;12.77;;
4466;SDS011;2246;42.664;23.278;2022-10-24T06:23:37;22.45;;;11.27;;
4466;SDS011;2246;42.664;23.278;2022-10-24T06:26:07;24.10;;;11.48;;
4466;SDS011;2246;42.664;23.278;2022-10-24T06:28:35;32.03;;;11.60;;
4466;SDS011;2246;42.664;23.278;2022-10-24T06:31:01;26.67;;;11.50;;
4466;SDS011;2246;42.664;23.278;2022-10-24T06:33:27;30.10;;;13.35;;
4466;SDS011;2246;42.664;23.278;2022-10-24T06:35:53;33.28;;;13.50;;
4466;SDS011;2246;42.664;23.278;2022-10-24T06:38:21;31.13;;;13.00;;
4466;SDS011;2246;42.664;23.278;2022-10-24T06:40:48;25.70;;;12.85;;
4466;SDS011;2246;42.664;23.278;2022-10-24T06:43:14;27.67;;;12.77;;
4466;SDS011;2246;42.664;23.278;2022-10-24T06:45:40;33.85;;;14.48;;
4466;SDS011;2246;42.664;23.278;2022-10-24T06:48:06;28.48;;;14.65;;
4466;SDS011;2246;42.664;23.278;2022-10-24T06:50:32;37.70;;;14.73;;
4466;SDS011;2246;42.664;23.278;2022-10-24T06:52:58;41.78;;;16.52;;
4466;SDS011;2246;42.664;23.278;2022-10-24T06:55:26;30.27;;;15.57;;
4466;SDS011;2246;42.664;23.278;2022-10-24T06:57:52;34.60;;;16.30;;
4466;SDS011;2246;42.664;23.278;2022-10-24T07:00:18;40.83;;;17.02;;
4466;SDS011;2246;42.664;23.278;2022-10-24T07:02:44;25.92;;;14.98;;
4466;SDS011;2246;42.664;23.278;2022-10-24T07:05:10;32.67;;;16.00;;
4466;SDS011;2246;42.664;23.278;2022-10-24T07:07:39;32.17;;;16.45;;
4466;SDS011;2246;42.664;23.278;2022-10-24T07:10:05;29.00;;;14.30;;
4466;SDS011;2246;42.664;23.278;2022-10-24T07:12:32;28.92;;;14.35;;
4466;SDS011;2246;42.664;23.278;2022-10-24T07:14:58;26.23;;;12.18;;
4466;SDS011;2246;42.664;23.278;2022-10-24T07:17:24;25.80;;;12.00;;
4466;SDS011;2246;42.664;23.278;2022-10-24T07:19:51;24.13;;;10.38;;
4466;SDS011;2246;42.664;23.278;2022-10-24T07:22:18;22.23;;;11.20;;
4466;SDS011;2246;42.664;23.278;2022-10-24T07:24:44;23.00;;;11.50;;
4466;SDS011;2246;42.664;23.278;2022-10-24T07:27:10;23.10;;;12.43;;
4466;SDS011;2246;42.664;23.278;2022-10-24T07:29:39;40.00;;;14.93;;
4466;SDS011;2246;42.664;23.278;2022-10-24T07:32:05;26.92;;;14.27;;
4466;SDS011;2246;42.664;23.278;2022-10-24T07:34:31;31.40;;;14.40;;
4466;SDS011;2246;42.664;23.278;2022-10-24T07:36:58;23.70;;;13.13;;
4466;SDS011;2246;42.664;23.278;2022-10-24T07:39:24;27.33;;;14.32;;
4466;SDS011;2246;42.664;23.278;2022-10-24T07:41:50;31.23;;;14.68;;
4466;SDS011;2246;42.664;23.278;2022-10-24T07:44:17;30.35;;;14.00;;
4466;SDS011;2246;42.664;23.278;2022-10-24T07:46:43;28.58;;;13.60;;
4466;SDS011;2246;42.664;23.278;2022-10-24T07:49:09;27.30;;;13.73;;
4466;SDS011;2246;42.664;23.278;2022-10-24T07:51:35;33.20;;;14.40;;
4466;SDS011;2246;42.664;23.278;2022-10-24T07:54:01;31.42;;;14.55;;
4466;SDS011;2246;42.664;23.278;2022-10-24T07:56:27;27.42;;;14.55;;
4466;SDS011;2246;42.664;23.278;2022-10-24T07:58:53;29.73;;;13.00;;
4466;SDS011;2246;42.664;23.278;2022-10-24T08:01:22;30.43;;;13.73;;
4466;SDS011;2246;42.664;23.278;2022-10-24T08:03:48;29.23;;;13.85;;
4466;SDS011;2246;42.664;23.278;2022-10-24T08:06:20;23.45;;;13.40;;
4466;SDS011;2246;42.664;23.278;2022-10-24T08:08:47;26.58;;;13.68;;
4466;SDS011;2246;42.664;23.278;2022-10-24T08:11:14;30.10;;;12.45;;
4466;SDS011;2246;42.664;23.278;2022-10-24T08:13:40;22.92;;;12.48;;
4466;SDS011;2246;42.664;23.278;2022-10-24T08:16:07;25.17;;;12.13;;
4466;SDS011;2246;42.664;23.278;2022-10-24T08:18:34;30.47;;;11.53;;
4466;SDS011;2246;42.664;23.278;2022-10-24T08:21:03;34.58;;;11.70;;
4466;SDS011;2246;42.664;23.278;2022-10-24T08:23:31;25.67;;;11.50;;
4466;SDS011;2246;42.664;23.278;2022-10-24T08:25:57;32.40;;;12.45;;
4466;SDS011;2246;42.664;23.278;2022-10-24T08:28:23;25.33;;;12.38;;
4466;SDS011;2246;42.664;23.278;2022-10-24T08:30:59;28.42;;;12.45;;
4466;SDS011;2246;42.664;23.278;2022-10-24T08:33:26;28.23;;;12.75;;
4466;SDS011;2246;42.664;23.278;2022-10-24T08:35:53;34.35;;;11.45;;
4466;SDS011;2246;42.664;23.278;2022-10-24T08:38:19;17.85;;;9.60;;
4466;SDS011;2246;42.664;23.278;2022-10-24T08:40:46;28.92;;;10.10;;
4466;SDS011;2246;42.664;23.278;2022-10-24T08:43:12;20.70;;;10.10;;
4466;SDS011;2246;42.664;23.278;2022-10-24T08:48:18;25.77;;;11.20;;
4466;SDS011;2246;42.664;23.278;2022-10-24T08:50:46;27.90;;;11.43;;
4466;SDS011;2246;42.664;23.278;2022-10-24T08:58:10;29.02;;;11.20;;
4466;SDS011;2246;42.664;23.278;2022-10-24T09:00:39;31.90;;;12.80;;
4466;SDS011;2246;42.664;23.278;2022-10-24T09:04:07;26.50;;;12.13;;
4466;SDS011;2246;42.664;23.278;2022-10-24T09:06:21;21.80;;;10.18;;
4466;SDS011;2246;42.664;23.278;2022-10-24T09:08:57;24.15;;;11.63;;
4466;SDS011;2246;42.664;23.278;2022-10-24T09:13:53;23.80;;;13.75;;
4466;SDS011;2246;42.664;23.278;2022-10-24T09:16:20;33.47;;;15.48;;
4466;SDS011;2246;42.664;23.278;2022-10-24T09:18:47;39.70;;;16.92;;
4466;SDS011;2246;42.664;23.278;2022-10-24T09:21:15;34.53;;;16.52;;
4466;SDS011;2246;42.664;23.278;2022-10-24T09:23:41;44.88;;;15.98;;
4466;SDS011;2246;42.664;23.278;2022-10-24T09:26:12;30.25;;;14.15;;
4466;SDS011;2246;42.664;23.278;2022-10-24T09:28:39;30.77;;;14.63;;
4466;SDS011;2246;42.664;23.278;2022-10-24T09:31:18;29.55;;;14.60;;
4466;SDS011;2246;42.664;23.278;2022-10-24T09:33:45;29.70;;;14.52;;
4466;SDS011;2246;42.664;23.278;2022-10-24T09:36:13;32.20;;;14.98;;
4466;SDS011;2246;42.664;23.278;2022-10-24T09:38:40;31.88;;;15.50;;
4466;SDS011;2246;42.664;23.278;2022-10-24T09:46:10;27.08;;;12.70;;
4466;SDS011;2246;42.664;23.278;2022-10-24T09:51:30;35.75;;;14.75;;
4466;SDS011;2246;42.664;23.278;2022-10-24T09:54:03;29.17;;;13.25;;
4466;SDS011;2246;42.664;23.278;2022-10-24T09:56:31;26.85;;;13.15;;
4466;SDS011;2246;42.664;23.278;2022-10-24T09:59:15;30.52;;;12.93;;
4466;SDS011;2246;42.664;23.278;2022-10-24T10:01:41;34.33;;;12.85;;
4466;SDS011;2246;42.664;23.278;2022-10-24T10:04:12;30.25;;;12.82;;
4466;SDS011;2246;42.664;23.278;2022-10-24T10:06:48;34.05;;;14.15;;
4466;SDS011;2246;42.664;23.278;2022-10-24T10:09:15;47.25;;;12.80;;
4466;SDS011;2246;42.664;23.278;2022-10-24T10:11:53;28.02;;;12.63;;
4466;SDS011;2246;42.664;23.278;2022-10-24T10:14:21;31.58;;;12.93;;
4466;SDS011;2246;42.664;23.278;2022-10-24T10:16:57;28.13;;;11.80;;
4466;SDS011;2246;42.664;23.278;2022-10-24T10:19:24;38.63;;;12.57;;
4466;SDS011;2246;42.664;23.278;2022-10-24T10:24:52;38.17;;;12.02;;
4466;SDS011;2246;42.664;23.278;2022-10-24T10:32:43;32.67;;;10.95;;
4466;SDS011;2246;42.664;23.278;2022-10-24T10:35:14;32.83;;;12.13;;
4466;SDS011;2246;42.664;23.278;2022-10-24T10:37:46;50.13;;;12.80;;
4466;SDS011;2246;42.664;23.278;2022-10-24T10:52:48;29.85;;;11.88;;
4466;SDS011;2246;42.664;23.278;2022-10-24T10:55:58;29.88;;;9.57;;
4466;SDS011;2246;42.664;23.278;2022-10-24T10:58:17;32.03;;;10.75;;
4466;SDS011;2246;42.664;23.278;2022-10-24T11:00:58;24.75;;;9.82;;
4466;SDS011;2246;42.664;23.278;2022-10-24T11:03:30;31.38;;;10.10;;
4466;SDS011;2246;42.664;23.278;2022-10-24T11:11:08;21.60;;;9.57;;
4466;SDS011;2246;42.664;23.278;2022-10-24T11:13:37;22.98;;;8.90;;
4466;SDS011;2246;42.664;23.278;2022-10-24T11:16:06;30.20;;;9.85;;
4466;SDS011;2246;42.664;23.278;2022-10-24T11:18:39;28.80;;;9.38;;
4466;SDS011;2246;42.664;23.278;2022-10-24T11:21:07;32.20;;;10.18;;
4466;SDS011;2246;42.664;23.278;2022-10-24T11:23:36;36.97;;;9.48;;
4466;SDS011;2246;42.664;23.278;2022-10-24T11:31:21;33.28;;;8.85;;
4466;SDS011;2246;42.664;23.278;2022-10-24T11:33:52;27.20;;;8.43;;
4466;SDS011;2246;42.664;23.278;2022-10-24T11:36:22;28.75;;;8.48;;
4466;SDS011;2246;42.664;23.278;2022-10-24T11:38:54;40.28;;;9.18;;
4466;SDS011;2246;42.664;23.278;2022-10-24T11:44:41;33.53;;;8.65;;
4466;SDS011;2246;42.664;23.278;2022-10-24T11:49:53;30.92;;;8.73;;
4466;SDS011;2246;42.664;23.278;2022-10-24T11:52:22;27.98;;;7.70;;
4466;SDS011;2246;42.664;23.278;2022-10-24T11:54:54;21.02;;;7.75;;
4466;SDS011;2246;42.664;23.278;2022-10-24T11:57:22;27.13;;;7.25;;
4466;SDS011;2246;42.664;23.278;2022-10-24T11:59:52;34.40;;;8.65;;
4466;SDS011;2246;42.664;23.278;2022-10-24T12:15:10;29.58;;;8.07;;
4466;SDS011;2246;42.664;23.278;2022-10-24T12:20:12;20.98;;;7.38;;
4466;SDS011;2246;42.664;23.278;2022-10-24T12:22:40;21.80;;;7.03;;
4466;SDS011;2246;42.664;23.278;2022-10-24T12:27:36;36.50;;;7.50;;
4466;SDS011;2246;42.664;23.278;2022-10-24T12:32:42;31.38;;;6.85;;
4466;SDS011;2246;42.664;23.278;2022-10-24T12:37:58;23.20;;;7.03;;
4466;SDS011;2246;42.664;23.278;2022-10-24T12:43:28;26.23;;;7.40;;
4466;SDS011;2246;42.664;23.278;2022-10-24T12:45:55;28.55;;;8.07;;
4466;SDS011;2246;42.664;23.278;2022-10-24T12:48:34;26.33;;;7.72;;
4466;SDS011;2246;42.664;23.278;2022-10-24T12:54:04;27.25;;;8.45;;
4466;SDS011;2246;42.664;23.278;2022-10-24T12:56:31;32.47;;;7.80;;
4466;SDS011;2246;42.664;23.278;2022-10-24T12:58:59;30.45;;;7.03;;
4466;SDS011;2246;42.664;23.278;2022-10-24T13:09:11;25.80;;;7.47;;
4466;SDS011;2246;42.664;23.278;2022-10-24T13:14:24;31.90;;;7.78;;
4466;SDS011;2246;42.664;23.278;2022-10-24T13:19:23;29.00;;;7.55;;
4466;SDS011;2246;42.664;23.278;2022-10-24T13:31:49;23.25;;;7.28;;
4466;SDS011;2246;42.664;23.278;2022-10-24T13:34:19;30.73;;;7.55;;
4466;SDS011;2246;42.664;23.278;2022-10-24T13:36:48;28.55;;;6.78;;
4466;SDS011;2246;42.664;23.278;2022-10-24T13:39:17;24.42;;;7.57;;
4466;SDS011;2246;42.664;23.278;2022-10-24T13:41:45;20.25;;;6.68;;
4466;SDS011;2246;42.664;23.278;2022-10-24T13:49:37;28.63;;;6.07;;
4466;SDS011;2246;42.664;23.278;2022-10-24T13:52:47;31.55;;;6.57;;
4466;SDS011;2246;42.664;23.278;2022-10-24T13:54:57;34.25;;;6.43;;
4466;SDS011;2246;42.664;23.278;2022-10-24T13:57:33;19.83;;;6.55;;
4466;SDS011;2246;42.664;23.278;2022-10-24T14:00:06;24.45;;;6.43;;
4466;SDS011;2246;42.664;23.278;2022-10-24T14:02:35;26.98;;;6.07;;
4466;SDS011;2246;42.664;23.278;2022-10-24T14:05:04;24.88;;;6.45;;
4466;SDS011;2246;42.664;23.278;2022-10-24T14:07:30;25.33;;;5.90;;
4466;SDS011;2246;42.664;23.278;2022-10-24T14:12:24;31.42;;;6.40;;
4466;SDS011;2246;42.664;23.278;2022-10-24T14:14:51;21.35;;;6.70;;
4466;SDS011;2246;42.664;23.278;2022-10-24T14:17:22;27.30;;;6.72;;
4466;SDS011;2246;42.664;23.278;2022-10-24T14:19:56;28.15;;;6.18;;
4466;SDS011;2246;42.664;23.278;2022-10-24T14:22:24;23.58;;;6.28;;
4466;SDS011;2246;42.664;23.278;2022-10-24T14:24:52;24.58;;;6.78;;
4466;SDS011;2246;42.664;23.278;2022-10-24T14:27:18;25.60;;;6.70;;
4466;SDS011;2246;42.664;23.278;2022-10-24T14:29:52;40.78;;;7.93;;
4466;SDS011;2246;42.664;23.278;2022-10-24T14:32:18;25.58;;;6.80;;
4466;SDS011;2246;42.664;23.278;2022-10-24T14:34:44;30.25;;;6.40;;
4466;SDS011;2246;42.664;23.278;2022-10-24T14:37:15;34.47;;;8.10;;
4466;SDS011;2246;42.664;23.278;2022-10-24T14:39:44;22.92;;;6.68;;
4466;SDS011;2246;42.664;23.278;2022-10-24T14:42:11;23.45;;;6.50;;
4466;SDS011;2246;42.664;23.278;2022-10-24T14:44:38;28.23;;;7.20;;
4466;SDS011;2246;42.664;23.278;2022-10-24T14:47:16;25.95;;;6.80;;
4466;SDS011;2246;42.664;23.278;2022-10-24T14:52:09;22.75;;;6.32;;
4466;SDS011;2246;42.664;23.278;2022-10-24T14:54:37;22.52;;;6.47;;
4466;SDS011;2246;42.664;23.278;2022-10-24T14:57:04;34.13;;;7.03;;
4466;SDS011;2246;42.664;23.278;2022-10-24T14:59:31;27.98;;;7.57;;
4466;SDS011;2246;42.664;23.278;2022-10-24T15:04:29;28.52;;;7.68;;
4466;SDS011;2246;42.664;23.278;2022-10-24T15:09:22;33.85;;;7.78;;
4466;SDS011;2246;42.664;23.278;2022-10-24T15:12:01;27.67;;;7.45;;
4466;SDS011;2246;42.664;23.278;2022-10-24T15:14:37;41.60;;;10.68;;
4466;SDS011;2246;42.664;23.278;2022-10-24T15:19:43;40.75;;;9.73;;
4466;SDS011;2246;42.664;23.278;2022-10-24T15:22:44;47.88;;;9.32;;
4466;SDS011;2246;42.664;23.278;2022-10-24T15:25:07;37.38;;;10.80;;
4466;SDS011;2246;42.664;23.278;2022-10-24T15:27:42;32.30;;;9.68;;
4466;SDS011;2246;42.664;23.278;2022-10-24T15:32:37;54.42;;;19.55;;
4466;SDS011;2246;42.664;23.278;2022-10-24T15:35:04;43.38;;;10.95;;
4466;SDS011;2246;42.664;23.278;2022-10-24T15:37:30;44.33;;;10.80;;
4466;SDS011;2246;42.664;23.278;2022-10-24T15:39:57;33.92;;;8.75;;
4466;SDS011;2246;42.664;23.278;2022-10-24T15:42:26;26.88;;;9.75;;
4466;SDS011;2246;42.664;23.278;2022-10-24T15:44:52;36.20;;;9.57;;
4466;SDS011;2246;42.664;23.278;2022-10-24T15:47:18;36.75;;;10.82;;
4466;SDS011;2246;42.664;23.278;2022-10-24T15:49:48;31.63;;;9.02;;
4466;SDS011;2246;42.664;23.278;2022-10-24T15:54:41;30.77;;;10.50;;
4466;SDS011;2246;42.664;23.278;2022-10-24T15:57:11;33.88;;;10.63;;
4466;SDS011;2246;42.664;23.278;2022-10-24T15:59:37;41.15;;;12.55;;
4466;SDS011;2246;42.664;23.278;2022-10-24T16:02:03;37.42;;;12.48;;
4466;SDS011;2246;42.664;23.278;2022-10-24T16:04:29;41.05;;;10.15;;
4466;SDS011;2246;42.664;23.278;2022-10-24T16:06:58;37.88;;;9.77;;
4466;SDS011;2246;42.664;23.278;2022-10-24T16:09:25;37.80;;;10.13;;
4466;SDS011;2246;42.664;23.278;2022-10-24T16:11:52;35.60;;;10.98;;
4466;SDS011;2246;42.664;23.278;2022-10-24T16:14:19;48.78;;;15.57;;
4466;SDS011;2246;42.664;23.278;2022-10-24T16:16:45;36.17;;;11.30;;
4466;SDS011;2246;42.664;23.278;2022-10-24T16:19:12;33.33;;;10.57;;
4466;SDS011;2246;42.664;23.278;2022-10-24T16:21:39;37.80;;;10.23;;
4466;SDS011;2246;42.664;23.278;2022-10-24T16:24:06;35.10;;;10.52;;
4466;SDS011;2246;42.664;23.278;2022-10-24T16:26:32;36.13;;;9.63;;
4466;SDS011;2246;42.664;23.278;2022-10-24T16:28:58;33.83;;;10.13;;
4466;SDS011;2246;42.664;23.278;2022-10-24T16:31:24;32.70;;;9.57;;
4466;SDS011;2246;42.664;23.278;2022-10-24T16:33:51;33.70;;;9.90;;
4466;SDS011;2246;42.664;23.278;2022-10-24T16:36:17;41.15;;;10.55;;
4466;SDS011;2246;42.664;23.278;2022-10-24T16:38:43;30.65;;;10.60;;
4466;SDS011;2246;42.664;23.278;2022-10-24T16:41:17;42.27;;;11.57;;
4466;SDS011;2246;42.664;23.278;2022-10-24T16:43:43;42.15;;;12.05;;
4466;SDS011;2246;42.664;23.278;2022-10-24T16:46:13;44.40;;;12.63;;
4466;SDS011;2246;42.664;23.278;2022-10-24T16:48:39;41.58;;;12.13;;
4466;SDS011;2246;42.664;23.278;2022-10-24T16:51:13;46.53;;;11.55;;
4466;SDS011;2246;42.664;23.278;2022-10-24T16:53:40;34.53;;;11.73;;
4466;SDS011;2246;42.664;23.278;2022-10-24T16:56:07;36.45;;;12.85;;
4466;SDS011;2246;42.664;23.278;2022-10-24T16:58:34;36.58;;;12.10;;
4466;SDS011;2246;42.664;23.278;2022-10-24T17:01:04;52.58;;;13.00;;
4466;SDS011;2246;42.664;23.278;2022-10-24T17:03:30;48.17;;;12.32;;
4466;SDS011;2246;42.664;23.278;2022-10-24T17:05:56;45.53;;;12.60;;
4466;SDS011;2246;42.664;23.278;2022-10-24T17:08:23;32.28;;;13.30;;
4466;SDS011;2246;42.664;23.278;2022-10-24T17:10:49;38.67;;;12.25;;
4466;SDS011;2246;42.664;23.278;2022-10-24T17:13:15;37.25;;;13.32;;